Time;durP1;ratioP1;P1;durP2;ratioP2;P2;SDS_P1;SDS_P2;PMS_P1;PMS_P2;Temp;Humidity;BMP_temperature;BMP_pressure;BME280_temperature;BME280_humidity;BME280_pressure;Samples;Min_cycle;Max_cycle;Signal;HPM_P1;HPM_P2
2021/08/06 00:00:58;;;;;;;7.23;2.90;;;16.50;99.90;;;;;;4991296;28;20211;-77
2021/08/06 00:03:24;;;;;;;3.27;2.97;;;16.50;99.90;;;;;;4991819;28;20643;-77
2021/08/06 00:05:50;;;;;;;5.33;3.03;;;16.70;99.90;;;;;;4991904;28;20804;-77
2021/08/06 00:08:15;;;;;;;5.60;2.87;;;16.60;99.90;;;;;;4991985;28;20180;-77
2021/08/06 00:10:41;;;;;;;3.47;2.57;;;16.60;99.90;;;;;;4991705;28;20343;-77
2021/08/06 00:13:06;;;;;;;3.50;2.77;;;16.70;99.90;;;;;;4991758;28;20180;-77
2021/08/06 00:15:32;;;;;;;2.87;2.53;;;16.80;99.90;;;;;;4991482;28;20478;-77
2021/08/06 00:17:57;;;;;;;4.70;2.70;;;16.80;99.90;;;;;;4991640;28;20199;-77
2021/08/06 00:20:23;;;;;;;3.67;2.67;;;16.80;99.90;;;;;;4991469;28;20581;-77
2021/08/06 00:22:48;;;;;;;3.20;2.43;;;16.90;99.90;;;;;;4991542;28;20259;-77
2021/08/06 00:25:14;;;;;;;5.07;2.73;;;16.80;99.90;;;;;;4991411;28;20176;-77
2021/08/06 00:27:39;;;;;;;4.10;2.60;;;16.80;99.90;;;;;;4991510;28;20187;-77
2021/08/06 00:30:05;;;;;;;4.37;2.67;;;16.80;99.90;;;;;;4991259;28;20533;-77
2021/08/06 00:32:31;;;;;;;3.30;2.73;;;16.80;99.90;;;;;;4991442;28;20271;-77
2021/08/06 00:34:57;;;;;;;2.97;2.50;;;16.80;99.90;;;;;;4991574;28;20187;-77
2021/08/06 00:37:23;;;;;;;2.70;2.50;;;16.80;99.90;;;;;;4991364;28;20177;-77
2021/08/06 00:39:49;;;;;;;3.00;2.70;;;16.90;99.90;;;;;;4991417;28;20590;-77
2021/08/06 00:42:14;;;;;;;2.97;2.67;;;16.90;99.90;;;;;;4991468;28;20556;-77
2021/08/06 00:44:40;;;;;;;3.00;2.70;;;16.90;99.90;;;;;;4991661;28;20175;-77
2021/08/06 00:47:05;;;;;;;3.30;2.93;;;16.80;99.90;;;;;;4990995;28;20176;-77
2021/08/06 00:49:31;;;;;;;3.00;2.67;;;16.80;99.90;;;;;;4991343;28;20173;-77
2021/08/06 00:51:56;;;;;;;3.10;2.80;;;16.90;99.90;;;;;;4991237;28;20197;-77
2021/08/06 00:54:23;;;;;;;3.40;2.80;;;16.90;99.90;;;;;;4991774;28;20191;-77
2021/08/06 00:56:49;;;;;;;4.40;2.70;;;16.90;99.90;;;;;;4991125;28;20187;-77
2021/08/06 00:59:15;;;;;;;3.23;2.37;;;16.90;99.90;;;;;;4991056;28;20184;-77
2021/08/06 01:01:40;;;;;;;2.50;2.30;;;16.80;99.90;;;;;;4991278;28;20734;-77
2021/08/06 01:04:23;;;;;;;2.90;2.60;;;16.90;99.90;;;;;;4991293;28;20199;-77
2021/08/06 01:06:57;;;;;;;2.53;2.33;;;16.90;99.90;;;;;;4991708;28;20551;-77
2021/08/06 01:09:44;;;;;;;2.83;2.60;;;16.90;99.90;;;;;;4991073;28;20650;-77
2021/08/06 01:12:11;;;;;;;2.67;2.47;;;16.80;99.90;;;;;;4991474;28;20187;-77
2021/08/06 01:14:39;;;;;;;4.27;2.37;;;16.90;99.90;;;;;;4991607;28;20177;-77
2021/08/06 01:17:04;;;;;;;3.50;2.53;;;16.80;99.90;;;;;;4991181;28;20522;-77
2021/08/06 01:20:04;;;;;;;3.90;2.80;;;16.80;99.90;;;;;;4991089;28;20267;-77
2021/08/06 01:22:40;;;;;;;3.90;2.40;;;16.80;99.90;;;;;;4992236;28;20199;-77
2021/08/06 01:25:10;;;;;;;3.33;2.47;;;16.80;99.90;;;;;;4992559;28;20664;-77
2021/08/06 01:27:36;;;;;;;3.77;2.60;;;16.80;99.90;;;;;;4995139;28;20266;-77
2021/08/06 01:30:05;;;;;;;3.30;2.60;;;16.80;99.90;;;;;;4994127;28;20199;-77
2021/08/06 01:32:31;;;;;;;3.37;2.80;;;16.80;99.90;;;;;;4994994;28;20184;-77
2021/08/06 01:34:56;;;;;;;4.90;2.50;;;16.80;99.90;;;;;;4995212;28;20187;-77
2021/08/06 01:37:22;;;;;;;3.63;2.67;;;16.80;99.90;;;;;;4996815;28;20188;-77
2021/08/06 01:39:47;;;;;;;3.77;2.60;;;16.90;99.90;;;;;;4994986;28;20208;-77
2021/08/06 01:42:26;;;;;;;3.13;2.47;;;16.80;99.90;;;;;;4994791;28;20323;-78
2021/08/06 01:44:53;;;;;;;2.70;2.40;;;16.80;99.90;;;;;;4994514;28;20279;-77
2021/08/06 01:47:39;;;;;;;4.07;2.47;;;16.80;99.90;;;;;;4994327;28;20274;-77
2021/08/06 01:50:07;;;;;;;4.37;2.87;;;16.80;99.90;;;;;;4994249;28;20192;-77
2021/08/06 01:52:41;;;;;;;4.20;2.73;;;16.80;99.90;;;;;;4994224;28;20177;-77
2021/08/06 01:55:08;;;;;;;4.17;2.80;;;16.80;99.90;;;;;;4994293;28;20199;-77
2021/08/06 01:57:33;;;;;;;3.20;2.60;;;16.80;99.90;;;;;;4993835;28;20187;-77
2021/08/06 02:00:00;;;;;;;3.17;2.60;;;16.70;99.90;;;;;;4993885;28;20528;-77
2021/08/06 02:02:25;;;;;;;4.83;2.80;;;16.70;99.90;;;;;;4993143;28;20499;-77
2021/08/06 02:04:51;;;;;;;3.10;2.60;;;16.60;99.90;;;;;;4993927;28;20176;-77
2021/08/06 02:07:17;;;;;;;3.83;2.70;;;16.60;99.90;;;;;;4993906;28;20322;-77
2021/08/06 02:09:42;;;;;;;8.33;2.90;;;16.60;99.90;;;;;;4993877;28;20207;-77
2021/08/06 02:12:08;;;;;;;3.60;2.77;;;16.60;99.90;;;;;;4994203;28;20187;-79
2021/08/06 02:14:33;;;;;;;4.27;2.87;;;16.60;99.90;;;;;;4993513;28;20191;-82
2021/08/06 02:16:59;;;;;;;3.93;2.80;;;16.50;99.90;;;;;;4993143;28;20176;-79
2021/08/06 02:19:25;;;;;;;3.20;2.70;;;16.50;99.90;;;;;;4992944;28;20176;-79
2021/08/06 02:21:51;;;;;;;3.23;2.60;;;16.50;99.90;;;;;;4993116;28;20215;-79
2021/08/06 02:24:17;;;;;;;2.80;2.50;;;16.50;99.90;;;;;;4993137;28;20529;-79
2021/08/06 02:26:43;;;;;;;2.70;2.50;;;16.50;99.90;;;;;;4993182;28;20191;-79
2021/08/06 02:29:10;;;;;;;3.77;2.80;;;16.50;99.90;;;;;;4992936;28;20184;-79
2021/08/06 02:31:36;;;;;;;2.93;2.40;;;16.60;99.90;;;;;;4993090;28;20203;-82
2021/08/06 02:34:02;;;;;;;2.80;2.57;;;16.60;99.90;;;;;;4993048;28;20177;-81
2021/08/06 02:36:27;;;;;;;3.53;2.70;;;16.60;99.90;;;;;;4992876;28;20246;-79
2021/08/06 02:38:57;;;;;;;3.90;2.53;;;16.60;99.90;;;;;;4992722;28;20180;-79
2021/08/06 02:41:23;;;;;;;3.13;2.70;;;16.50;99.90;;;;;;4993420;28;20200;-79
2021/08/06 02:43:48;;;;;;;2.93;2.60;;;16.60;99.90;;;;;;4994504;28;20266;-81
2021/08/06 02:46:15;;;;;;;3.00;2.70;;;16.60;99.90;;;;;;4985842;28;20256;-79
2021/08/06 02:48:41;;;;;;;7.33;2.73;;;16.60;99.90;;;;;;4992572;28;20184;-79
2021/08/06 02:51:06;;;;;;;4.13;2.43;;;16.60;99.90;;;;;;4992784;28;20281;-79
2021/08/06 02:53:32;;;;;;;3.03;2.70;;;16.70;99.90;;;;;;4992483;28;20662;-79
2021/08/06 02:55:57;;;;;;;3.03;2.60;;;16.50;99.90;;;;;;4990244;28;20249;-79
2021/08/06 02:58:23;;;;;;;3.23;2.80;;;16.60;99.90;;;;;;4992525;28;20181;-79
2021/08/06 03:00:49;;;;;;;3.00;2.70;;;16.60;99.90;;;;;;4991588;28;20290;-79
2021/08/06 03:03:14;;;;;;;3.50;2.67;;;16.60;99.90;;;;;;4992632;28;20196;-82
2021/08/06 03:05:40;;;;;;;2.67;2.40;;;16.60;99.90;;;;;;4992239;28;20207;-79
2021/08/06 03:08:06;;;;;;;4.17;2.90;;;16.60;99.90;;;;;;4992428;28;20187;-79
2021/08/06 03:10:32;;;;;;;4.17;2.77;;;16.60;99.90;;;;;;4991904;28;20208;-79
2021/08/06 03:12:58;;;;;;;2.70;2.50;;;16.60;99.90;;;;;;4992204;28;20191;-79
2021/08/06 03:15:23;;;;;;;3.10;2.47;;;16.60;99.90;;;;;;4992087;28;20188;-79
2021/08/06 03:17:49;;;;;;;3.10;2.80;;;16.60;99.90;;;;;;4992469;28;20180;-80
2021/08/06 03:20:16;;;;;;;2.90;2.60;;;16.50;99.90;;;;;;4992142;28;20574;-78
2021/08/06 03:22:41;;;;;;;4.60;2.83;;;16.50;99.90;;;;;;4992067;28;20304;-79
2021/08/06 03:25:08;;;;;;;3.17;2.87;;;16.50;99.90;;;;;;4991955;28;20667;-82
2021/08/06 03:27:34;;;;;;;3.23;2.83;;;16.50;99.90;;;;;;4991938;28;20203;-79
2021/08/06 03:29:59;;;;;;;4.97;3.07;;;16.40;99.90;;;;;;4991744;28;20667;-81
2021/08/06 03:32:25;;;;;;;3.43;2.70;;;16.40;99.90;;;;;;4992022;28;20707;-81
2021/08/06 03:34:50;;;;;;;3.47;2.90;;;16.40;99.90;;;;;;4991918;28;20599;-79
2021/08/06 03:37:16;;;;;;;4.77;2.90;;;16.30;99.90;;;;;;4991798;28;20176;-79
2021/08/06 03:39:41;;;;;;;4.93;2.83;;;16.30;99.90;;;;;;4991510;28;20172;-82
2021/08/06 03:42:07;;;;;;;3.43;2.87;;;16.30;99.90;;;;;;4991271;28;20261;-78
2021/08/06 03:44:33;;;;;;;3.53;2.73;;;16.40;99.90;;;;;;4993123;28;20176;-79
2021/08/06 03:46:58;;;;;;;3.07;2.77;;;16.30;99.90;;;;;;4991519;28;20172;-79
2021/08/06 03:49:24;;;;;;;3.43;2.80;;;16.40;99.90;;;;;;4991196;28;20690;-79
2021/08/06 03:51:49;;;;;;;4.33;3.37;;;16.40;99.90;;;;;;4991498;28;20204;-79
2021/08/06 03:54:15;;;;;;;5.23;2.97;;;16.30;99.90;;;;;;4991658;28;20319;-78
2021/08/06 03:56:40;;;;;;;5.17;2.77;;;16.40;99.90;;;;;;4980426;28;20191;-79
2021/08/06 03:59:06;;;;;;;3.40;2.80;;;16.30;99.90;;;;;;4971855;28;20188;-79
2021/08/06 04:01:31;;;;;;;3.57;2.73;;;16.30;99.90;;;;;;4983863;28;20219;-79
2021/08/06 04:03:57;;;;;;;3.30;3.00;;;16.30;99.90;;;;;;4991575;28;20176;-79
2021/08/06 04:06:22;;;;;;;4.37;2.97;;;16.30;99.90;;;;;;4988423;28;20182;-79
2021/08/06 04:08:48;;;;;;;4.20;3.00;;;16.30;99.90;;;;;;4991148;28;20186;-82
2021/08/06 04:11:14;;;;;;;4.23;2.63;;;16.30;99.90;;;;;;4981632;28;20304;-79
2021/08/06 04:13:39;;;;;;;6.20;2.97;;;16.30;99.90;;;;;;4972603;28;20219;-79
2021/08/06 04:16:05;;;;;;;4.33;3.43;;;16.40;99.90;;;;;;4981334;28;20660;-79
2021/08/06 04:18:30;;;;;;;5.10;3.17;;;16.50;99.90;;;;;;4983231;28;20184;-81
2021/08/06 04:20:57;;;;;;;5.00;3.33;;;16.40;99.90;;;;;;4981803;28;20686;-79
2021/08/06 04:23:23;;;;;;;3.60;2.60;;;16.40;99.90;;;;;;4981069;28;20208;-79
2021/08/06 04:25:50;;;;;;;3.73;3.17;;;16.40;99.90;;;;;;4980713;28;20208;-82
2021/08/06 04:28:15;;;;;;;5.67;2.70;;;16.40;99.90;;;;;;4974428;28;20551;-79
2021/08/06 04:30:41;;;;;;;3.90;2.87;;;16.40;99.90;;;;;;4971686;28;20189;-79
2021/08/06 04:33:06;;;;;;;4.03;2.70;;;16.50;99.90;;;;;;4971798;28;20180;-81
2021/08/06 04:35:32;;;;;;;3.67;2.90;;;16.40;99.90;;;;;;4971585;28;20281;-78
2021/08/06 04:37:58;;;;;;;5.50;3.50;;;16.50;99.90;;;;;;4975940;28;20188;-76
2021/08/06 04:40:24;;;;;;;3.87;3.37;;;16.50;99.90;;;;;;4990985;28;20549;-77
2021/08/06 04:42:50;;;;;;;4.37;2.93;;;16.60;99.90;;;;;;4991156;28;20338;-77
2021/08/06 04:45:15;;;;;;;4.57;2.90;;;16.60;99.90;;;;;;4992240;28;20199;-77
2021/08/06 04:47:45;;;;;;;5.00;3.07;;;16.60;99.90;;;;;;4991304;28;20176;-77
2021/08/06 04:50:11;;;;;;;5.20;3.50;;;16.60;99.90;;;;;;4989019;28;20568;-76
2021/08/06 04:52:36;;;;;;;4.43;2.93;;;16.60;99.90;;;;;;4980078;28;20695;-76
2021/08/06 04:55:02;;;;;;;3.63;3.17;;;16.70;99.90;;;;;;4979555;28;20173;-77
2021/08/06 04:57:28;;;;;;;3.40;3.10;;;16.70;99.90;;;;;;4980484;28;20193;-76
2021/08/06 04:59:53;;;;;;;4.30;3.20;;;16.70;99.90;;;;;;4985478;28;20179;-77
2021/08/06 05:02:19;;;;;;;3.83;3.10;;;16.70;99.90;;;;;;4983727;28;20201;-77
2021/08/06 05:04:44;;;;;;;3.87;3.10;;;16.80;99.90;;;;;;4979492;28;20180;-77
2021/08/06 05:07:16;;;;;;;4.30;3.30;;;16.80;99.90;;;;;;4993588;28;20188;-76
2021/08/06 05:09:42;;;;;;;4.87;3.20;;;16.90;99.90;;;;;;4994027;28;20171;-81
2021/08/06 05:12:07;;;;;;;3.43;3.13;;;17.00;99.90;;;;;;4979942;28;20177;-79
2021/08/06 05:14:34;;;;;;;3.73;3.10;;;16.90;99.90;;;;;;4975286;28;20192;-80
2021/08/06 05:16:59;;;;;;;4.13;3.13;;;16.90;99.90;;;;;;4974866;28;20200;-79
2021/08/06 05:19:25;;;;;;;3.33;3.03;;;16.90;99.90;;;;;;4974853;28;20678;-79
2021/08/06 05:21:50;;;;;;;4.00;2.90;;;17.00;99.90;;;;;;4974880;28;20245;-79
2021/08/06 05:24:16;;;;;;;5.00;3.57;;;17.00;99.90;;;;;;4974974;28;20181;-79
2021/08/06 05:26:41;;;;;;;4.67;3.23;;;17.00;99.90;;;;;;4998594;28;20183;-79
2021/08/06 05:29:07;;;;;;;4.30;3.20;;;17.00;99.90;;;;;;4996111;28;20685;-79
2021/08/06 05:31:33;;;;;;;3.87;3.20;;;17.00;99.90;;;;;;4997346;28;20226;-79
2021/08/06 05:33:58;;;;;;;3.20;2.90;;;17.00;99.90;;;;;;5013888;28;20203;-78
2021/08/06 05:36:24;;;;;;;5.57;3.33;;;17.00;99.90;;;;;;5013895;28;20559;-79
2021/08/06 05:38:49;;;;;;;3.80;3.40;;;17.00;99.90;;;;;;4997217;28;20697;-79
2021/08/06 05:41:15;;;;;;;5.27;3.13;;;17.10;99.90;;;;;;4996954;28;20705;-79
2021/08/06 05:43:40;;;;;;;4.00;3.10;;;17.10;99.90;;;;;;4997268;28;20172;-79
2021/08/06 05:46:06;;;;;;;4.60;3.10;;;17.10;99.90;;;;;;4997258;28;20171;-79
2021/08/06 05:48:31;;;;;;;4.30;3.00;;;17.20;99.90;;;;;;5013640;28;20172;-79
2021/08/06 05:50:57;;;;;;;3.37;3.07;;;17.30;99.90;;;;;;4996959;28;20234;-79
2021/08/06 05:53:22;;;;;;;4.33;3.30;;;17.30;99.90;;;;;;4996862;28;20182;-79
2021/08/06 05:55:48;;;;;;;4.83;3.03;;;17.30;99.90;;;;;;5013065;28;20182;-79
2021/08/06 05:58:14;;;;;;;3.27;2.97;;;17.40;99.90;;;;;;4997032;28;20226;-79
2021/08/06 06:00:39;;;;;;;3.40;2.80;;;17.30;99.90;;;;;;4996814;28;20663;-79
2021/08/06 06:03:05;;;;;;;3.20;2.90;;;17.30;99.90;;;;;;4997175;28;20211;-79
2021/08/06 06:05:30;;;;;;;5.23;2.97;;;17.40;99.90;;;;;;4996775;28;20172;-79
2021/08/06 06:07:56;;;;;;;4.90;3.03;;;17.40;99.90;;;;;;4996576;28;20180;-79
2021/08/06 06:10:22;;;;;;;4.87;3.50;;;17.40;99.90;;;;;;4995915;28;20306;-79
2021/08/06 06:12:48;;;;;;;4.57;3.17;;;17.40;99.90;;;;;;4996593;28;20417;-79
2021/08/06 06:15:14;;;;;;;3.90;3.17;;;17.40;99.90;;;;;;4996794;28;20214;-78
2021/08/06 06:17:39;;;;;;;3.43;2.83;;;17.40;99.90;;;;;;4996538;28;20198;-78
2021/08/06 06:20:05;;;;;;;5.10;3.00;;;17.40;99.90;;;;;;4996556;28;20203;-78
2021/08/06 06:22:31;;;;;;;4.00;2.77;;;17.50;99.90;;;;;;4998014;28;20203;-79
2021/08/06 06:24:57;;;;;;;4.60;2.93;;;17.50;99.90;;;;;;4996692;28;20232;-77
2021/08/06 06:27:22;;;;;;;3.20;2.40;;;17.50;99.90;;;;;;5014307;28;20639;-78
2021/08/06 06:29:48;;;;;;;3.07;2.77;;;17.50;99.90;;;;;;5012871;28;20184;-77
2021/08/06 06:32:13;;;;;;;3.40;2.73;;;17.60;99.90;;;;;;4996332;28;20186;-77
2021/08/06 06:34:39;;;;;;;3.70;2.50;;;17.60;99.90;;;;;;4981114;28;20188;-78
2021/08/06 06:37:05;;;;;;;3.10;2.60;;;17.60;99.90;;;;;;4994272;28;20199;-78
2021/08/06 06:39:30;;;;;;;3.73;2.20;;;17.70;99.90;;;;;;4993139;28;20274;-78
2021/08/06 06:41:56;;;;;;;4.30;2.90;;;17.60;99.90;;;;;;4992329;28;20285;-78
2021/08/06 06:44:21;;;;;;;3.43;2.40;;;17.50;99.90;;;;;;5011028;28;20209;-83
2021/08/06 06:46:47;;;;;;;3.83;2.57;;;17.50;99.90;;;;;;4983604;28;20267;-79
2021/08/06 06:49:12;;;;;;;3.67;3.03;;;17.40;99.90;;;;;;4981870;28;20701;-81
2021/08/06 06:51:38;;;;;;;3.63;2.83;;;17.40;99.90;;;;;;4984816;28;20207;-78
2021/08/06 06:54:03;;;;;;;4.03;2.47;;;17.40;99.90;;;;;;4993555;28;20187;-78
2021/08/06 06:56:29;;;;;;;5.27;2.23;;;17.40;99.90;;;;;;4989451;28;20181;-78
2021/08/06 06:58:54;;;;;;;2.90;2.60;;;17.40;99.90;;;;;;5009578;28;20235;-78
2021/08/06 07:01:20;;;;;;;4.03;2.33;;;17.40;99.90;;;;;;4993092;28;20204;-77
2021/08/06 07:03:46;;;;;;;3.90;2.70;;;17.40;99.90;;;;;;4996786;28;20184;-79
2021/08/06 07:06:11;;;;;;;3.70;3.00;;;17.50;99.90;;;;;;4975294;28;20640;-77
2021/08/06 07:08:39;;;;;;;2.63;2.40;;;17.60;99.90;;;;;;4992585;28;20636;-77
2021/08/06 07:11:05;;;;;;;3.50;2.70;;;17.70;99.90;;;;;;4971758;28;20204;-78
2021/08/06 07:13:31;;;;;;;3.87;3.20;;;17.80;99.90;;;;;;4999772;28;20180;-78
2021/08/06 07:15:57;;;;;;;2.60;2.40;;;17.80;99.90;;;;;;4993116;28;20234;-77
2021/08/06 07:18:22;;;;;;;4.83;2.50;;;17.80;99.90;;;;;;5004866;28;20266;-77
2021/08/06 07:20:48;;;;;;;5.93;2.80;;;17.90;99.90;;;;;;4993091;28;20200;-77
2021/08/06 07:23:14;;;;;;;3.90;2.83;;;17.80;99.90;;;;;;4987862;28;20188;-77
2021/08/06 07:25:39;;;;;;;3.10;2.80;;;17.90;99.90;;;;;;4988453;28;20181;-77
2021/08/06 07:28:05;;;;;;;6.57;2.63;;;17.90;99.90;;;;;;5010595;28;20184;-78
2021/08/06 07:30:30;;;;;;;3.67;2.60;;;18.00;99.90;;;;;;4974583;28;20200;-78
2021/08/06 07:32:56;;;;;;;4.00;2.53;;;17.90;99.90;;;;;;4990011;28;20176;-78
2021/08/06 07:35:23;;;;;;;2.90;2.50;;;17.90;99.90;;;;;;4976201;28;20628;-78
2021/08/06 07:37:49;;;;;;;3.23;2.70;;;18.00;99.90;;;;;;4994724;28;20209;-78
2021/08/06 07:40:15;;;;;;;3.07;2.77;;;18.10;99.90;;;;;;4991003;28;20247;-78
2021/08/06 07:42:41;;;;;;;3.60;2.20;;;18.20;99.90;;;;;;5001693;28;20311;-77
2021/08/06 07:45:07;;;;;;;2.83;2.50;;;18.30;99.90;;;;;;4990860;28;20602;-77
2021/08/06 07:47:32;;;;;;;4.47;2.30;;;18.40;99.90;;;;;;4980657;28;20633;-77
2021/08/06 07:49:58;;;;;;;3.33;2.63;;;18.50;99.90;;;;;;4998660;28;20273;-78
2021/08/06 07:52:23;;;;;;;4.33;2.63;;;18.40;99.90;;;;;;5022053;28;20666;-78
2021/08/06 07:54:49;;;;;;;3.67;2.67;;;18.40;99.90;;;;;;4998893;28;20647;-78
2021/08/06 07:57:15;;;;;;;2.67;2.17;;;18.40;99.90;;;;;;4994534;28;20643;-78
2021/08/06 07:59:40;;;;;;;2.43;2.20;;;18.30;99.90;;;;;;4978363;28;20658;-78
2021/08/06 08:02:06;;;;;;;2.90;2.50;;;18.20;99.90;;;;;;5004787;28;20880;-78
2021/08/06 08:04:32;;;;;;;3.23;2.63;;;18.20;99.90;;;;;;4990154;28;20691;-77
2021/08/06 08:06:57;;;;;;;3.17;2.37;;;18.20;99.90;;;;;;4994472;28;20255;-77
2021/08/06 08:09:23;;;;;;;5.47;2.80;;;18.20;99.90;;;;;;5010848;28;20263;-77
2021/08/06 08:11:49;;;;;;;2.90;2.50;;;18.30;99.90;;;;;;4994974;28;20247;-76
2021/08/06 08:14:15;;;;;;;3.80;2.77;;;18.20;99.90;;;;;;4994847;28;20250;-76
2021/08/06 08:16:40;;;;;;;3.13;2.53;;;18.20;99.90;;;;;;4994536;28;20176;-76
2021/08/06 08:19:06;;;;;;;4.30;2.63;;;18.10;99.90;;;;;;4994702;28;20234;-76
2021/08/06 08:21:32;;;;;;;3.80;2.63;;;18.10;99.90;;;;;;4994612;28;20286;-77
2021/08/06 08:23:57;;;;;;;2.93;2.40;;;18.00;99.90;;;;;;5010961;28;20175;-77
2021/08/06 08:26:23;;;;;;;4.03;2.43;;;17.90;99.90;;;;;;4987267;28;20223;-76
2021/08/06 08:28:48;;;;;;;3.60;2.30;;;18.00;99.90;;;;;;4991195;28;20295;-76
2021/08/06 08:31:14;;;;;;;2.43;2.23;;;18.10;99.90;;;;;;4990626;28;20274;-77
2021/08/06 08:33:39;;;;;;;2.03;1.80;;;18.20;99.90;;;;;;4993969;28;20176;-76
2021/08/06 08:36:05;;;;;;;2.23;2.00;;;18.30;99.90;;;;;;5011642;28;20230;-77
2021/08/06 08:38:31;;;;;;;2.97;2.03;;;18.40;99.90;;;;;;4996955;28;20188;-78
2021/08/06 08:40:58;;;;;;;2.23;2.03;;;18.60;99.90;;;;;;5011629;28;20215;-79
2021/08/06 08:43:24;;;;;;;1.90;1.80;;;18.70;99.90;;;;;;4997123;28;20180;-77
2021/08/06 08:45:49;;;;;;;2.87;2.00;;;18.80;99.90;;;;;;4995185;28;20187;-78
2021/08/06 08:48:17;;;;;;;3.23;1.80;;;18.90;99.90;;;;;;4991976;28;20557;-78
2021/08/06 08:50:43;;;;;;;2.07;1.83;;;18.90;99.90;;;;;;4994575;28;20543;-78
2021/08/06 08:53:09;;;;;;;2.77;2.00;;;19.00;99.90;;;;;;4995095;28;20191;-77
2021/08/06 08:55:37;;;;;;;2.47;2.00;;;19.10;99.90;;;;;;4994852;28;20184;-78
2021/08/06 08:58:03;;;;;;;2.40;2.00;;;19.30;99.90;;;;;;4994777;28;20180;-77
2021/08/06 09:00:28;;;;;;;2.60;2.00;;;19.40;99.90;;;;;;4994999;28;20694;-79
2021/08/06 09:02:54;;;;;;;2.57;2.17;;;19.30;99.90;;;;;;4995293;28;20224;-78
2021/08/06 09:05:23;;;;;;;2.40;2.20;;;19.10;99.90;;;;;;4994799;28;20176;-78
2021/08/06 09:07:49;;;;;;;3.63;2.20;;;19.10;99.90;;;;;;4995036;28;20180;-79
2021/08/06 09:10:21;;;;;;;2.37;2.17;;;19.00;99.90;;;;;;4998090;28;20199;-79
2021/08/06 09:12:59;;;;;;;2.67;2.20;;;19.00;99.90;;;;;;5001478;28;20172;-79
2021/08/06 09:15:53;;;;;;;2.70;2.50;;;19.00;99.90;;;;;;4994664;28;20187;-78
2021/08/06 09:18:28;;;;;;;2.70;2.30;;;19.00;99.90;;;;;;4994637;28;20176;-79
2021/08/06 09:20:58;;;;;;;2.73;2.03;;;19.10;99.90;;;;;;5010465;28;20192;-78
2021/08/06 09:23:48;;;;;;;3.43;2.27;;;19.20;99.90;;;;;;4995001;28;20177;-79
2021/08/06 09:26:43;;;;;;;2.83;2.33;;;19.60;99.90;;;;;;5011830;28;20181;-78
2021/08/06 09:29:17;;;;;;;2.40;2.20;;;20.00;99.90;;;;;;4996360;28;20164;-78
2021/08/06 09:31:55;;;;;;;3.40;2.57;;;20.30;99.90;;;;;;4994509;28;20693;-78
2021/08/06 09:34:25;;;;;;;2.57;2.10;;;20.40;99.90;;;;;;5010860;28;20238;-78
2021/08/06 09:36:52;;;;;;;2.97;2.60;;;20.40;99.90;;;;;;4996897;28;20539;-78
2021/08/06 09:39:17;;;;;;;3.77;2.80;;;20.30;99.90;;;;;;4996141;28;20164;-78
2021/08/06 09:41:44;;;;;;;3.33;2.30;;;20.20;99.90;;;;;;4997500;28;20215;-81
2021/08/06 09:44:25;;;;;;;3.50;2.37;;;20.20;99.90;;;;;;4996218;28;20173;-77
2021/08/06 09:46:50;;;;;;;3.03;2.00;;;20.10;99.90;;;;;;4994341;28;20247;-78
2021/08/06 09:49:18;;;;;;;4.40;2.00;;;20.10;99.90;;;;;;4994161;28;20272;-77
2021/08/06 09:51:44;;;;;;;2.90;2.30;;;20.10;99.90;;;;;;4994632;28;20641;-77
2021/08/06 09:54:26;;;;;;;3.33;2.30;;;20.20;99.90;;;;;;4994105;28;20179;-77
2021/08/06 09:57:21;;;;;;;2.87;2.20;;;20.20;99.90;;;;;;4996334;28;20234;-78
2021/08/06 09:59:54;;;;;;;4.47;2.10;;;20.10;99.90;;;;;;4974654;28;20177;-78
2021/08/06 10:02:24;;;;;;;3.30;2.40;;;20.20;99.90;;;;;;4974659;28;20193;-76
2021/08/06 10:05:12;;;;;;;3.80;2.27;;;20.10;99.90;;;;;;4974550;28;20168;-77
2021/08/06 10:07:41;;;;;;;4.63;2.20;;;20.10;99.90;;;;;;4976867;28;20165;-77
2021/08/06 10:10:09;;;;;;;2.57;2.27;;;20.10;99.90;;;;;;4978221;28;20363;-76
2021/08/06 10:12:34;;;;;;;2.83;2.23;;;20.30;99.90;;;;;;4977327;28;20287;-77
2021/08/06 10:15:00;;;;;;;4.43;2.17;;;20.40;99.90;;;;;;4982413;28;20795;-76
2021/08/06 10:17:25;;;;;;;4.23;1.90;;;20.60;99.90;;;;;;4974166;28;20192;-77
2021/08/06 10:19:51;;;;;;;3.80;2.10;;;20.60;99.90;;;;;;4983451;28;20172;-77
2021/08/06 10:22:17;;;;;;;2.93;2.07;;;20.70;99.90;;;;;;4976893;28;20203;-77
2021/08/06 10:24:45;;;;;;;3.17;1.87;;;20.70;99.90;;;;;;4983675;28;20368;-77
2021/08/06 10:27:12;;;;;;;5.87;2.03;;;20.80;99.90;;;;;;4985829;28;20177;-77
2021/08/06 10:29:59;;;;;;;2.07;1.73;;;20.90;99.90;;;;;;4989484;28;20180;-77
2021/08/06 10:32:25;;;;;;;3.00;1.37;;;20.90;99.90;;;;;;4985568;28;20548;-78
2021/08/06 10:35:03;;;;;;;2.03;1.17;;;21.00;99.90;;;;;;4989446;28;20201;-78
2021/08/06 10:37:47;;;;;;;2.67;1.17;;;21.10;99.90;;;;;;5017330;28;20180;-78
2021/08/06 10:40:32;;;;;;;2.33;1.23;;;21.50;99.90;;;;;;4994031;28;20215;-78
2021/08/06 10:43:10;;;;;;;1.20;1.10;;;21.70;99.90;;;;;;4992886;28;20692;-78
2021/08/06 10:45:45;;;;;;;1.00;0.87;;;21.90;99.90;;;;;;4994183;28;20299;-78
2021/08/06 10:48:29;;;;;;;1.63;1.20;;;21.90;99.90;;;;;;4994139;28;20539;-79
2021/08/06 10:51:16;;;;;;;2.33;1.20;;;22.00;99.90;;;;;;4994548;28;20267;-77
2021/08/06 10:53:49;;;;;;;1.77;1.17;;;22.10;99.90;;;;;;5007525;28;20274;-78
2021/08/06 10:56:27;;;;;;;1.33;1.03;;;22.10;99.90;;;;;;5027087;28;20176;-78
2021/08/06 10:59:03;;;;;;;2.27;1.30;;;22.00;99.90;;;;;;4993755;28;20227;-78
2021/08/06 11:01:32;;;;;;;1.87;1.50;;;22.10;99.90;;;;;;4992814;28;20222;-78
2021/08/06 11:04:27;;;;;;;2.27;1.40;;;22.20;99.90;;;;;;4993836;28;20177;-78
2021/08/06 11:06:56;;;;;;;3.37;1.47;;;22.30;99.90;;;;;;4989421;28;20622;-79
2021/08/06 11:09:25;;;;;;;1.30;1.20;;;22.40;99.90;;;;;;4994398;28;20172;-78
2021/08/06 11:11:54;;;;;;;2.00;1.40;;;22.50;99.90;;;;;;5005924;28;20633;-78
2021/08/06 11:14:31;;;;;;;1.73;1.33;;;22.60;99.90;;;;;;4987823;28;20260;-78
2021/08/06 11:17:06;;;;;;;1.43;1.33;;;22.40;99.90;;;;;;4993785;28;20184;-76
2021/08/06 11:19:42;;;;;;;1.60;1.30;;;22.30;99.90;;;;;;4979878;28;20184;-78
2021/08/06 11:22:10;;;;;;;2.47;1.60;;;22.20;99.90;;;;;;4973259;28;20759;-79
2021/08/06 11:24:43;;;;;;;3.23;1.60;;;22.10;99.90;;;;;;4972909;28;20633;-78
2021/08/06 11:27:09;;;;;;;3.80;1.33;;;22.20;99.90;;;;;;4973025;28;20173;-79
2021/08/06 11:29:35;;;;;;;2.83;1.53;;;22.30;99.90;;;;;;4972725;28;20208;-78
2021/08/06 11:32:05;;;;;;;3.23;2.00;;;22.40;99.90;;;;;;4986532;28;20605;-76
2021/08/06 11:34:54;;;;;;;2.10;1.80;;;22.30;99.90;;;;;;4989214;28;20173;-76
2021/08/06 11:37:22;;;;;;;2.37;1.60;;;22.20;99.90;;;;;;4984472;28;20177;-76
2021/08/06 11:40:09;;;;;;;3.30;1.90;;;22.30;99.90;;;;;;4988848;28;20168;-78
2021/08/06 11:42:35;;;;;;;4.90;1.90;;;22.40;99.90;;;;;;4992067;28;20287;-78
2021/08/06 11:45:00;;;;;;;4.07;2.00;;;22.50;99.90;;;;;;4992121;28;20172;-79
2021/08/06 11:47:46;;;;;;;3.47;2.27;;;22.60;99.90;;;;;;4992339;28;20183;-79
2021/08/06 11:50:16;;;;;;;3.53;1.80;;;22.70;99.90;;;;;;4988900;28;20597;-78
2021/08/06 11:52:49;;;;;;;2.33;1.80;;;22.90;99.90;;;;;;4991701;28;20168;-78
2021/08/06 11:55:17;;;;;;;4.27;2.13;;;23.00;99.90;;;;;;4991978;28;20223;-79
2021/08/06 11:57:54;;;;;;;4.07;1.80;;;23.20;99.90;;;;;;4991850;28;20683;-78
2021/08/06 12:00:24;;;;;;;3.40;2.00;;;23.20;99.90;;;;;;4991788;28;20191;-79
2021/08/06 12:03:10;;;;;;;2.25;1.80;;;23.10;99.90;;;;;;4992837;28;20203;-79
2021/08/06 12:05:37;;;;;;;3.33;2.20;;;23.00;99.90;;;;;;4993157;28;20210;-78
2021/08/06 12:08:27;;;;;;;3.33;1.83;;;23.00;99.90;;;;;;4992018;28;20553;-77
2021/08/06 12:11:08;;;;;;;3.87;2.10;;;22.90;99.90;;;;;;4992432;28;20212;-78
2021/08/06 12:13:35;;;;;;;3.07;2.37;;;22.80;99.90;;;;;;4992114;28;20198;-78
2021/08/06 12:16:12;;;;;;;3.63;2.10;;;22.70;99.90;;;;;;4992126;28;20176;-78
2021/08/06 12:18:39;;;;;;;2.90;2.10;;;22.50;99.90;;;;;;4988593;28;20253;-78
2021/08/06 12:21:13;;;;;;;3.00;2.27;;;22.40;99.90;;;;;;4991327;28;20204;-76
2021/08/06 12:23:42;;;;;;;2.57;1.90;;;22.30;99.90;;;;;;4992866;28;20177;-76
2021/08/06 12:26:22;;;;;;;3.00;1.90;;;22.30;99.90;;;;;;4991363;28;20208;-74
2021/08/06 12:28:50;;;;;;;6.63;2.30;;;22.20;99.90;;;;;;4992038;28;20180;-80
2021/08/06 12:31:27;;;;;;;5.53;2.10;;;22.10;99.90;;;;;;4994938;28;20188;-82
2021/08/06 12:34:03;;;;;;;3.27;1.83;;;22.00;99.90;;;;;;4992830;28;20578;-78
2021/08/06 12:36:29;;;;;;;3.90;1.90;;;21.90;99.90;;;;;;4991390;28;20184;-77
2021/08/06 12:39:07;;;;;;;4.87;2.20;;;21.70;99.90;;;;;;4991518;28;20636;-78
2021/08/06 12:41:32;;;;;;;2.60;2.17;;;21.60;99.90;;;;;;4991342;28;20231;-78
2021/08/06 12:44:24;;;;;;;3.30;1.97;;;21.80;99.90;;;;;;4991778;28;20181;-77
2021/08/06 12:46:58;;;;;;;3.00;1.90;;;21.90;99.90;;;;;;4992945;28;20160;-76
2021/08/06 12:49:29;;;;;;;2.90;1.80;;;21.90;99.90;;;;;;5007348;28;20652;-77
2021/08/06 12:51:59;;;;;;;2.70;1.50;;;21.90;99.90;;;;;;4991290;28;20203;-77
2021/08/06 12:54:42;;;;;;;2.07;1.27;;;21.90;99.90;;;;;;4991602;28;20330;-77